Detalii statie AGRONICOLESCU [00001CFA]

Toti senzorii

Date Temperatura solului [C]Precipitatii [mm]Voltaj baterie [mV]Leaf Wetness [Min]HC Air temperature [C]HC Relative humidity [%]Punctul de roua [C]
medieminmaxsumaultimatimpmedieminmaxmediemediemin
2019-06-15 18:00:00 0 7352 30.46 29.76 30.9 56.76 19.6 7.4
2019-06-15 19:00:00 0 7362 24.94 23.71 26.1 0 0 0
2019-06-15 20:00:00 0 7264 23.2 21.08 25.25 0 0 0
2019-06-15 21:00:00 0 7158 20.87 20.68 21.23 8.33 0
2019-06-15 22:00:00 0 7070 20.88 20.67 21.13 0 0 0
2019-06-15 23:00:00 0 7000 20.56 20.15 21.01 0 0 0
2019-06-16 00:00:00 0 7020 19.97 19.78 20.22 0 0 0
2019-06-16 01:00:00 0 7010 19.55 19.17 19.82 0 0 0
2019-06-16 02:00:00 0 7000 19.11 18.94 19.36 0 0 0
2019-06-16 03:00:00 0 6992 18.35 17.91 18.96 0 0 0
2019-06-16 04:00:00 0 6982 17.75 17.42 17.93 0 0 0
2019-06-16 05:00:00 0 6982 17.28 16.92 17.53 0 0 0
2019-06-16 06:00:00 0 6972 17.31 16.95 17.65 0 0 0
2019-06-16 07:00:00 0 7010 18.4 17.72 19.39 0 0 0
2019-06-16 08:00:00 0 7070 20.96 19.6 22.54 0 0 0
2019-06-16 09:00:00 0 7304 24.19 22.59 25.52 0 0 0
2019-06-16 10:00:00 0 7392 26.86 25.71 27.6 0 0 0
2019-06-16 11:00:00 0 7382 29.1 27.55 30.09 0 0 0
2019-06-16 12:00:00 0 7382 30.39 29.61 31.9 0 0 0
2019-06-16 13:00:00 0 7372 31.58 30.5 33.02 0 0 0
2019-06-16 14:00:00 0 7382 32.67 31.09 33.82 11.58 0
2019-06-16 15:00:00 0 7372 34.14 32.44 34.83 56.34 23.1 17.5
2019-06-16 16:00:00 0 7372 33.68 32.43 34.83 61.64 24.1 16.5
2019-06-16 17:00:00 0 7284 60 34.37 32.42 35.26 12.01 4.5 0
2019-06-16 18:00:00 0 7314 33.09 31.99 34.84 46.66 19.8 17.2
2019-06-16 19:00:00 0 7254 31.89 30.3 33.35 36.27 14.5 0
2019-06-16 20:00:00 0 7382 27.25 26.14 30.87 42.28 12.3 0
2019-06-16 21:00:00 0 7264 26.07 24.89 26.99 0 0 0
2019-06-16 22:00:00 0 7158 23.51 22.82 24.65 33.33 7.6 0
2019-06-16 23:00:00 0 7060 22.74 22.48 23.12 0 0 0
2019-06-17 00:00:00 0 7010 22.2 21.12 22.93 0 0 0
2019-06-17 01:00:00 0 6982 20.76 19.99 21.57 2 0
2019-06-17 02:00:00 0 6992 20.05 19.81 20.41 0 0 0
2019-06-17 03:00:00 0 6992 19.93 19.74 20.18 0 0 0
2019-06-17 04:00:00 0 7000 19.56 19.37 19.74 0 0 0
2019-06-17 05:00:00 0 7000 19.31 19.09 19.45 0 0 0
2019-06-17 06:00:00 0 7010 19.24 19.08 19.42 0 0 0
2019-06-17 07:00:00 0 7060 20.36 19.58 21.2 0 0 0
2019-06-17 08:00:00 0 7098 22.77 21.5 24.01 41.66 0
2019-06-17 09:00:00 0 7332 26.1 24.23 27.5 96.07 25.3 23.7
2019-06-17 10:00:00 0 7382 28.36 27.41 29.28 67.23 20.4 0
2019-06-17 11:00:00 0 7382 29.42 28.84 29.92 47.44 0
2019-06-17 12:00:00 0 7382 31.41 29.67 33.12 48.51 0
2019-06-17 13:00:00 0 7382 33.37 32.45 34.38 75.61 28.2 23
2019-06-17 14:00:00 0 7372 33.59 32.81 34.67 83.01 30.1 27.6
2019-06-17 15:00:00 0 7372 33.68 32.68 34.44 88.26 31.2 28.9
2019-06-17 16:00:00 0 7382 33.57 32.62 34.66 89.56 31.4 28.7
2019-06-17 17:00:00 0 7362 32.44 31.46 33.87 63.33 23.7 20.9